createdAt,value
2019-05-01T00:04:12.776Z,98829.25
2019-05-01T00:09:18.414Z,98833.22
2019-05-01T00:14:24.240Z,98825.59
2019-05-01T00:19:29.490Z,98821.63
2019-05-01T00:24:35.054Z,98815.06
2019-05-01T00:29:40.443Z,98814.80
2019-05-01T00:35:04.526Z,98816.67
2019-05-01T00:40:18.956Z,98806.91
2019-05-01T00:45:26.401Z,98801.38
2019-05-01T00:50:34.203Z,98795.03
2019-05-01T00:55:45.917Z,98788.71
2019-05-01T01:01:09.989Z,98782.91
2019-05-01T01:06:15.561Z,98779.47
2019-05-01T01:11:20.861Z,98776.33
2019-05-01T01:16:26.213Z,98768.66
2019-05-01T01:21:31.449Z,98766.80
2019-05-01T01:26:37.705Z,98766.03
2019-05-01T01:31:44.149Z,98760.73
2019-05-01T01:36:49.515Z,98760.76
2019-05-01T01:41:54.877Z,98754.93
2019-05-01T01:47:01.333Z,98744.66
2019-05-01T01:52:07.613Z,98733.30
2019-05-01T01:57:13.685Z,98729.86
2019-05-01T02:02:32.064Z,98726.18
2019-05-01T02:07:40.066Z,98721.94
2019-05-01T02:12:45.668Z,98722.23
2019-05-01T02:17:50.988Z,98713.02
2019-05-01T02:22:56.350Z,98705.59
2019-05-01T02:28:31.808Z,98702.95
2019-05-01T02:33:37.654Z,98704.27
2019-05-01T02:38:45.213Z,98706.39
2019-05-01T02:43:53.209Z,98702.95
2019-05-01T02:49:05.739Z,98695.60
2019-05-01T02:54:14.448Z,98694.99
2019-05-01T02:59:20.355Z,98701.01
2019-05-01T03:04:26.090Z,98707.05
2019-05-01T03:09:33.881Z,98712.52
2019-05-01T03:14:42.575Z,98707.80
2019-05-01T03:20:03.270Z,98696.38
2019-05-01T03:25:09.128Z,98682.95
2019-05-01T03:30:15.274Z,98684.10
2019-05-01T03:35:20.908Z,98697.20
2019-05-01T03:40:26.470Z,98668.78
2019-05-01T03:45:34.302Z,98678.30
2019-05-01T03:50:40.067Z,98679.56
2019-05-01T03:55:48.704Z,98678.31
2019-05-01T04:01:06.324Z,98666.92
2019-05-01T04:06:13.607Z,98660.09
2019-05-01T04:11:19.568Z,98672.62
2019-05-01T04:16:26.381Z,98670.23
2019-05-01T04:21:37.116Z,98668.08
2019-05-01T04:26:42.453Z,98675.67
2019-05-01T04:32:07.090Z,98669.05
2019-05-01T04:37:14.597Z,98668.58
2019-05-01T04:42:21.691Z,98683.56
2019-05-01T04:47:29.656Z,98685.13
2019-05-01T04:52:35.360Z,98682.95
2019-05-01T04:57:41.489Z,98689.37
2019-05-01T05:03:04.900Z,98669.64
2019-05-01T05:08:09.885Z,98685.34
2019-05-01T05:13:27.538Z,98673.63
2019-05-01T05:18:35.564Z,98673.53
2019-05-01T05:23:42.841Z,98661.80
2019-05-01T05:28:51.241Z,98658.31
2019-05-01T05:34:02.426Z,98651.28
2019-05-01T05:39:18.729Z,98669.31
2019-05-01T05:44:24.427Z,98665.25
2019-05-01T05:49:31.645Z,98663.89
2019-05-01T05:55:05.384Z,98659.82
2019-05-01T06:00:26.584Z,98672.06
2019-05-01T06:05:48.778Z,98669.23
2019-05-01T06:11:33.947Z,98662.44
2019-05-01T06:17:05.532Z,98668.91
2019-05-01T06:22:40.480Z,98664.76
2019-05-01T06:28:01.076Z,98662.05
2019-05-01T06:33:44.123Z,98659.49
2019-05-01T06:38:43.400Z,98675.52
2019-05-01T06:44:02.105Z,98670.47
2019-05-01T06:49:29.464Z,98670.11
2019-05-01T06:54:36.135Z,98665.39
2019-05-01T06:59:42.798Z,98679.06
2019-05-01T07:04:50.489Z,98678.13
2019-05-01T07:09:59.160Z,98667.83
2019-05-01T07:15:11.968Z,98670.00
2019-05-01T07:20:25.542Z,98674.37
2019-05-01T07:25:34.837Z,98671.29
2019-05-01T07:31:14.141Z,98661.30
2019-05-01T07:36:20.340Z,98662.70
2019-05-01T07:41:25.950Z,98657.94
2019-05-01T07:46:43.861Z,98656.61
2019-05-01T07:51:53.640Z,98667.73
2019-05-01T07:57:03.170Z,98681.41
2019-05-01T08:02:14.263Z,98678.73
2019-05-01T08:07:21.787Z,98672.14
2019-05-01T08:12:27.496Z,98685.02
2019-05-01T08:17:35.810Z,98679.06
2019-05-01T08:22:41.729Z,98676.91
2019-05-01T08:27:57.958Z,98667.87
2019-05-01T08:33:14.617Z,98686.35
2019-05-01T08:38:19.259Z,98696.50
2019-05-01T08:43:25.045Z,98692.05
2019-05-01T08:48:38.751Z,98691.11
2019-05-01T08:53:46.133Z,98690.09
2019-05-01T08:58:51.549Z,98691.36
2019-05-01T09:03:57.842Z,98688.73
2019-05-01T09:09:08.333Z,98683.27
2019-05-01T09:14:13.080Z,98690.33
2019-05-01T09:19:18.561Z,98690.80
2019-05-01T09:24:28.094Z,98692.18
2019-05-01T09:29:46.878Z,98687.45
2019-05-01T09:34:52.515Z,98671.84
2019-05-01T09:39:57.876Z,98679.12
2019-05-01T09:45:03.544Z,98681.40
2019-05-01T09:50:09.121Z,98680.98
2019-05-01T09:55:23.025Z,98684.93
2019-05-01T10:00:30.653Z,98682.72
2019-05-01T10:05:37.995Z,98679.14
2019-05-01T10:10:48.913Z,98675.34
2019-05-01T10:15:56.864Z,98670.53
2019-05-01T10:21:02.191Z,98665.27
2019-05-01T10:26:10.394Z,98665.53
2019-05-01T10:31:20.556Z,98649.44
2019-05-01T10:36:49.890Z,98642.14
2019-05-01T10:41:55.455Z,98639.47
2019-05-01T10:47:02.099Z,98632.00
2019-05-01T10:52:14.902Z,98614.11
2019-05-01T10:57:20.815Z,98612.43
2019-05-01T11:02:27.384Z,98607.14
2019-05-01T11:07:39.101Z,98594.64
2019-05-01T11:12:44.767Z,98602.59
2019-05-01T11:17:50.365Z,98599.48
2019-05-01T11:22:55.922Z,98597.70
2019-05-01T11:28:02.454Z,98588.73
2019-05-01T11:33:26.869Z,98584.08
2019-05-01T11:38:50.778Z,98576.06
2019-05-01T11:43:57.865Z,98564.05
2019-05-01T11:49:04.367Z,98567.91
2019-05-01T11:54:09.699Z,98567.23
2019-05-01T11:59:15.735Z,98568.41
2019-05-01T12:04:23.730Z,98563.00
2019-05-01T12:09:29.239Z,98557.59
2019-05-01T12:14:35.641Z,98554.11
2019-05-01T12:19:41.256Z,98551.41
2019-05-01T12:24:46.697Z,98551.32
2019-05-01T12:29:52.442Z,98543.45
2019-05-01T12:34:57.997Z,98543.80
2019-05-01T12:40:04.284Z,98531.55
2019-05-01T12:45:11.441Z,98525.58
2019-05-01T12:50:17.613Z,98536.98
2019-05-01T12:55:46.533Z,98536.09
2019-05-01T13:00:53.568Z,98530.27
2019-05-01T13:05:59.399Z,98527.81
2019-05-01T13:11:05.739Z,98528.56
2019-05-01T13:16:14.035Z,98528.91
2019-05-01T13:21:20.044Z,98514.83
2019-05-01T13:26:45.321Z,98505.97
2019-05-01T13:32:03.404Z,98499.91
2019-05-01T13:37:09.647Z,98496.74
2019-05-01T13:42:16.611Z,98486.14
2019-05-01T13:47:22.219Z,98493.88
2019-05-01T13:52:27.986Z,98483.78
2019-05-01T13:57:33.265Z,98482.23
2019-05-01T14:02:38.732Z,98473.50
2019-05-01T14:07:47.201Z,98475.34
2019-05-01T14:12:52.727Z,98476.45
2019-05-01T14:17:59.998Z,98467.36
2019-05-01T14:23:10.397Z,98471.14
2019-05-01T14:28:17.110Z,98462.67
2019-05-01T14:33:22.575Z,98457.59
2019-05-01T14:38:28.840Z,98461.22
2019-05-01T14:43:35.993Z,98459.89
2019-05-01T14:48:43.435Z,98454.16
2019-05-01T14:53:49.470Z,98451.68
2019-05-01T14:58:55.451Z,98455.99
2019-05-01T15:04:05.589Z,98454.13
2019-05-01T15:09:11.030Z,98454.88
2019-05-01T15:14:43.414Z,98452.38
2019-05-01T15:19:54.315Z,98438.94
2019-05-01T15:25:01.885Z,98430.55
2019-05-01T15:30:09.079Z,98430.13
2019-05-01T15:35:16.486Z,98422.05
2019-05-01T15:40:28.854Z,98415.65
2019-05-01T15:45:34.624Z,98405.55
2019-05-01T15:50:43.231Z,98413.08
2019-05-01T15:55:49.574Z,98407.02
2019-05-01T16:00:55.066Z,98398.98
2019-05-01T16:06:00.485Z,98393.02
2019-05-01T16:11:14.636Z,98394.53
2019-05-01T16:16:20.069Z,98382.83
2019-05-01T16:21:26.674Z,98388.31
2019-05-01T16:26:32.506Z,98381.91
2019-05-01T16:31:38.277Z,98385.98
2019-05-01T16:36:45.324Z,98397.09
2019-05-01T16:41:50.974Z,98379.17
2019-05-01T16:46:56.772Z,98375.36
2019-05-01T16:52:02.132Z,98373.17
2019-05-01T16:57:15.085Z,98363.69
2019-05-01T17:02:43.708Z,98363.20
2019-05-01T17:07:59.066Z,98363.79
2019-05-01T17:13:26.021Z,98373.89
2019-05-01T17:18:31.622Z,98369.43
2019-05-01T17:23:38.935Z,98368.68
2019-05-01T17:28:44.545Z,98371.00
2019-05-01T17:33:55.385Z,98368.08
2019-05-01T17:38:58.399Z,98367.17
2019-05-01T17:44:07.461Z,98361.83
2019-05-01T17:49:15.097Z,98359.04
2019-05-01T17:54:21.886Z,98360.98
2019-05-01T17:59:27.578Z,98356.52
2019-05-01T18:04:41.669Z,98359.92
2019-05-01T18:09:51.370Z,98358.08
2019-05-01T18:14:56.258Z,98362.84
2019-05-01T18:20:01.889Z,98359.61
2019-05-01T18:25:19.129Z,98365.47
2019-05-01T18:30:29.876Z,98365.82
2019-05-01T18:35:35.198Z,98370.19
2019-05-01T18:40:48.327Z,98373.22
2019-05-01T18:45:55.632Z,98369.87
2019-05-01T18:51:01.039Z,98372.91
2019-05-01T18:56:07.088Z,98381.40
2019-05-01T19:01:12.711Z,98377.52
2019-05-01T19:06:18.059Z,98381.41
2019-05-01T19:11:23.728Z,98378.05
2019-05-01T19:16:29.311Z,98381.88
2019-05-01T19:21:35.251Z,98381.20
2019-05-01T19:26:42.644Z,98386.42
2019-05-01T19:31:49.110Z,98382.52
2019-05-01T19:36:54.434Z,98379.59
2019-05-01T19:42:00.393Z,98382.20
2019-05-01T19:47:07.948Z,98378.88
2019-05-01T19:52:13.839Z,98377.84
2019-05-01T19:57:19.388Z,98374.37
2019-05-01T20:02:25.283Z,98372.79
2019-05-01T20:07:31.023Z,98368.88
2019-05-01T20:12:36.323Z,98372.04
2019-05-01T20:17:41.880Z,98366.34
2019-05-01T20:22:48.262Z,98364.44
2019-05-01T20:27:54.713Z,98363.09
2019-05-01T20:33:02.120Z,98359.11
2019-05-01T20:38:09.070Z,98355.64
2019-05-01T20:43:14.471Z,98354.81
2019-05-01T20:48:23.760Z,98351.27
2019-05-01T20:53:27.198Z,98348.50
2019-05-01T20:58:34.206Z,98344.39
2019-05-01T21:03:44.136Z,98345.75
2019-05-01T21:08:55.023Z,98347.02
2019-05-01T21:14:16.771Z,98342.52
2019-05-01T21:19:08.843Z,98344.20
2019-05-01T21:24:14.225Z,98340.48
2019-05-01T21:29:21.560Z,98337.58
2019-05-01T21:34:26.960Z,98338.97
2019-05-01T21:39:33.471Z,98336.85
2019-05-01T21:44:39.128Z,98334.61
2019-05-01T21:49:45.113Z,98326.81
2019-05-01T21:54:55.301Z,98323.96
2019-05-01T21:59:57.993Z,98316.56
2019-05-01T22:05:04.875Z,98313.62
2019-05-01T22:10:11.559Z,98315.06
2019-05-01T22:15:25.395Z,98315.55
2019-05-01T22:20:38.652Z,98310.05
2019-05-01T22:25:49.979Z,98312.53
2019-05-01T22:31:21.790Z,98303.83
2019-05-01T22:36:27.632Z,98304.39
2019-05-01T22:41:32.898Z,98305.14
2019-05-01T22:46:38.934Z,98298.34
2019-05-01T22:51:46.601Z,98301.84
2019-05-01T22:56:51.934Z,98306.89
2019-05-01T23:02:03.067Z,98297.02
2019-05-01T23:07:11.806Z,98290.17
2019-05-01T23:12:18.974Z,98283.64
2019-05-01T23:17:34.968Z,98284.93
2019-05-01T23:22:40.795Z,98280.39
2019-05-01T23:27:46.078Z,98279.17
2019-05-01T23:32:53.234Z,98269.73
2019-05-01T23:38:01.305Z,98264.98
2019-05-01T23:43:06.606Z,98252.16
2019-05-01T23:48:11.891Z,98249.45
2019-05-01T23:53:17.331Z,98254.03
2019-05-01T23:58:22.799Z,98247.28
